Gouldsboro, ME (04607)

1:22 AM EDT on July 02, 2015 (GMT -0400)
Avalon Hill | | Change Station
CLOSE
Current Station
Personal Weather Station
Location: Gouldsboro, ME
Elevation: 127 ft
Nearby Weather Stations

Elev 127 ft 44.48 °N, 68.10 °W | Updated 1 minute ago

Fog
Fog
57.6 °F
Feels Like 57.6 °F
N
0.0
Wind Variable Wind from North
Gusts 0.0 mph

Today
High -- | Low -- °F
--% Chance of Precip.
Yesterday
High -- | Low -- °F
Precip. -- in
4:51 AM 8:20 PM
Full, 100% visible
Pressure 29.71 in
Visibility 0.8 miles
Clouds Overcast 200 ft
Dew Point 57 °F
Humidity 99%
Rainfall 0.00 in
Snow Depth Not available.
UV 0 out of 12
Pollen 2.60 out of 12
Air Quality Not available.
Flu Activity Not available.
METAR KBHB 020515Z AUTO 18005KT 3/4SM OVC002 15/15 A2971 RMK AO1

More Conditions Fewer Conditions

Pressure 29.71 in
Visibility 0.8 miles
Clouds Overcast 200 ft
Dew Point 57 °F
Humidity 99%
Rainfall 0.00 in
Snow Depth Not available.
UV 0 out of 12
Pollen 2.60 out of 12
Air Quality Not available.
Flu Activity Not available.
METAR KBHB 020515Z AUTO 18005KT 3/4SM OVC002 15/15 A2971 RMK AO1

More Conditions Fewer Conditions

10-Day Weather Forecast

×

Almanac

Astronomy

Jul. 02, 2015 Rise Set
Actual Time
Civil Twilight
Nautical Twilight
Astronomical Twilight
Moon
Length of Visible Light
Length of Day
Tomorrow will be .
, % of the Moon is Illuminated

Today's Extremes

State Highs State Lows

Community

WunderPhotos

Upload Photos

1,834,423 photos uploaded!

WunderBlogs® & News

Nearby

Air Quality

  Air Quality AQ Index Pollutant
Not available.

Snow Depth

Station Depth Elevation

Earthquake Activity

City Distance Mag. Time & Date
Minimum magnitude displayed is 2.5.

Coastal Water Temperatures

Place Temperature

Stations

Nearby Weather Stations

Station Location Temp. Windchill Dew Point Humidity Wind Precip. Elev Updated Type